sensor_id;sensor_type;location;lat;lon;timestamp;pressure;altitude;pressure_sealevel;temperature
37414;BMP280;23279;46.472;30.760;2023-04-01T00:02:16;76630.16;;;-146.33
37414;BMP280;23279;46.472;30.760;2023-04-01T00:04:42;76628.13;;;-146.33
37414;BMP280;23279;46.472;30.760;2023-04-01T00:07:08;76642.38;;;-146.33
37414;BMP280;23279;46.472;30.760;2023-04-01T00:09:34;76640.34;;;-146.33
37414;BMP280;23279;46.472;30.760;2023-04-01T00:12:00;76632.19;;;-146.33
37414;BMP280;23279;46.472;30.760;2023-04-01T00:14:26;76587.44;;;-146.33
37414;BMP280;23279;46.472;30.760;2023-04-01T00:16:52;76550.84;;;-146.33
37414;BMP280;23279;46.472;30.760;2023-04-01T00:19:18;76552.88;;;-146.33
37414;BMP280;23279;46.472;30.760;2023-04-01T00:21:43;76508.13;;;-146.33
37414;BMP280;23279;46.472;30.760;2023-04-01T00:24:09;76510.16;;;-146.33
37414;BMP280;23279;46.472;30.760;2023-04-01T00:26:36;76502.03;;;-146.33
37414;BMP280;23279;46.472;30.760;2023-04-01T00:29:01;76502.03;;;-146.33
37414;BMP280;23279;46.472;30.760;2023-04-01T00:31:27;76485.75;;;-146.33
37414;BMP280;23279;46.472;30.760;2023-04-01T00:33:53;76471.53;;;-146.33
37414;BMP280;23279;46.472;30.760;2023-04-01T00:36:20;76461.34;;;-146.33
37414;BMP280;23279;46.472;30.760;2023-04-01T00:38:46;76447.13;;;-146.33
37414;BMP280;23279;46.472;30.760;2023-04-01T00:41:12;76449.16;;;-146.33
37414;BMP280;23279;46.472;30.760;2023-04-01T00:43:40;76477.63;;;-146.33
37414;BMP280;23279;46.472;30.760;2023-04-01T00:46:06;76485.75;;;-146.33
37414;BMP280;23279;46.472;30.760;2023-04-01T00:48:55;76481.69;;;-146.33
37414;BMP280;23279;46.472;30.760;2023-04-01T00:51:27;76449.16;;;-146.33
37414;BMP280;23279;46.472;30.760;2023-04-01T00:53:56;76441.00;;;-146.33
37414;BMP280;23279;46.472;30.760;2023-04-01T00:56:30;76451.19;;;-146.33
37414;BMP280;23279;46.472;30.760;2023-04-01T00:59:00;76418.63;;;-146.33
37414;BMP280;23279;46.472;30.760;2023-04-01T01:01:27;76428.81;;;-146.33
37414;BMP280;23279;46.472;30.760;2023-04-01T01:03:54;76422.72;;;-146.33
37414;BMP280;23279;46.472;30.760;2023-04-01T01:09:32;76414.56;;;-146.33
37414;BMP280;23279;46.472;30.760;2023-04-01T01:12:16;76404.41;;;-146.33
37414;BMP280;23279;46.472;30.760;2023-04-01T01:28:36;76363.72;;;-146.33
37414;BMP280;23279;46.472;30.760;2023-04-01T01:31:19;76373.91;;;-146.33
37414;BMP280;23279;46.472;30.760;2023-04-01T01:34:01;76363.72;;;-146.33
37414;BMP280;23279;46.472;30.760;2023-04-01T01:36:31;76371.88;;;-146.33
37414;BMP280;23279;46.472;30.760;2023-04-01T01:39:01;76404.41;;;-146.33
37414;BMP280;23279;46.472;30.760;2023-04-01T01:41:27;76406.44;;;-146.33
37414;BMP280;23279;46.472;30.760;2023-04-01T01:43:56;76455.25;;;-146.33
37414;BMP280;23279;46.472;30.760;2023-04-01T01:46:23;76475.59;;;-146.33
37414;BMP280;23279;46.472;30.760;2023-04-01T01:48:51;76502.03;;;-146.33
37414;BMP280;23279;46.472;30.760;2023-04-01T01:51:18;76516.25;;;-146.33
37414;BMP280;23279;46.472;30.760;2023-04-01T01:53:44;76526.44;;;-146.33
37414;BMP280;23279;46.472;30.760;2023-04-01T01:56:11;76567.09;;;-146.33
37414;BMP280;23279;46.472;30.760;2023-04-01T01:58:49;76552.88;;;-146.33
37414;BMP280;23279;46.472;30.760;2023-04-01T02:01:28;76558.97;;;-146.33
37414;BMP280;23279;46.472;30.760;2023-04-01T02:03:55;76556.94;;;-146.33
37414;BMP280;23279;46.472;30.760;2023-04-01T02:06:23;76548.81;;;-146.33
37414;BMP280;23279;46.472;30.760;2023-04-01T02:08:54;76558.97;;;-146.33
37414;BMP280;23279;46.472;30.760;2023-04-01T02:11:28;76558.97;;;-146.33
37414;BMP280;23279;46.472;30.760;2023-04-01T02:14:10;76603.72;;;-146.33
37414;BMP280;23279;46.472;30.760;2023-04-01T02:16:44;76615.94;;;-146.33
37414;BMP280;23279;46.472;30.760;2023-04-01T02:19:12;76601.69;;;-146.33
37414;BMP280;23279;46.472;30.760;2023-04-01T02:21:39;76605.75;;;-146.33
37414;BMP280;23279;46.472;30.760;2023-04-01T02:24:10;76607.78;;;-146.33
37414;BMP280;23279;46.472;30.760;2023-04-01T02:26:37;76591.53;;;-146.33
37414;BMP280;23279;46.472;30.760;2023-04-01T02:29:05;76579.31;;;-146.33
37414;BMP280;23279;46.472;30.760;2023-04-01T02:31:32;76577.28;;;-146.33
37414;BMP280;23279;46.472;30.760;2023-04-01T02:33:57;76554.91;;;-146.33
37414;BMP280;23279;46.472;30.760;2023-04-01T02:36:23;76534.56;;;-146.33
37414;BMP280;23279;46.472;30.760;2023-04-01T02:38:49;76532.53;;;-146.33
37414;BMP280;23279;46.472;30.760;2023-04-01T02:41:15;76530.50;;;-146.33
37414;BMP280;23279;46.472;30.760;2023-04-01T02:43:40;76518.28;;;-146.33
37414;BMP280;23279;46.472;30.760;2023-04-01T02:46:06;76524.41;;;-146.33
37414;BMP280;23279;46.472;30.760;2023-04-01T02:48:31;76528.47;;;-146.33
37414;BMP280;23279;46.472;30.760;2023-04-01T02:50:57;76502.03;;;-146.33
37414;BMP280;23279;46.472;30.760;2023-04-01T02:53:22;76510.16;;;-146.33
37414;BMP280;23279;46.472;30.760;2023-04-01T02:55:48;76514.22;;;-146.33
37414;BMP280;23279;46.472;30.760;2023-04-01T02:58:16;76500.00;;;-146.33
37414;BMP280;23279;46.472;30.760;2023-04-01T03:00:41;76508.13;;;-146.33
37414;BMP280;23279;46.472;30.760;2023-04-01T03:03:07;76512.19;;;-146.33
37414;BMP280;23279;46.472;30.760;2023-04-01T03:05:33;76508.13;;;-146.33
37414;BMP280;23279;46.472;30.760;2023-04-01T03:07:58;76528.47;;;-146.33
37414;BMP280;23279;46.472;30.760;2023-04-01T03:10:24;76554.91;;;-146.33
37414;BMP280;23279;46.472;30.760;2023-04-01T03:12:49;76554.91;;;-146.33
37414;BMP280;23279;46.472;30.760;2023-04-01T03:15:15;76538.63;;;-146.33
37414;BMP280;23279;46.472;30.760;2023-04-01T03:17:41;76485.75;;;-146.33
37414;BMP280;23279;46.472;30.760;2023-04-01T03:20:07;76516.25;;;-146.33
37414;BMP280;23279;46.472;30.760;2023-04-01T03:22:34;76538.63;;;-146.33
37414;BMP280;23279;46.472;30.760;2023-04-01T03:25:00;76495.94;;;-146.33
37414;BMP280;23279;46.472;30.760;2023-04-01T03:27:26;76530.50;;;-146.33
37414;BMP280;23279;46.472;30.760;2023-04-01T03:29:51;76536.59;;;-146.33
37414;BMP280;23279;46.472;30.760;2023-04-01T03:32:17;76508.13;;;-146.33
37414;BMP280;23279;46.472;30.760;2023-04-01T03:34:42;76506.09;;;-146.33
37414;BMP280;23279;46.472;30.760;2023-04-01T03:37:07;76542.72;;;-146.33
37414;BMP280;23279;46.472;30.760;2023-04-01T03:39:33;76530.50;;;-146.33
37414;BMP280;23279;46.472;30.760;2023-04-01T03:41:58;76585.41;;;-146.33
37414;BMP280;23279;46.472;30.760;2023-04-01T03:44:24;76587.44;;;-146.33
37414;BMP280;23279;46.472;30.760;2023-04-01T03:46:50;76571.19;;;-146.33
37414;BMP280;23279;46.472;30.760;2023-04-01T03:49:15;76571.19;;;-146.33
37414;BMP280;23279;46.472;30.760;2023-04-01T03:51:42;76607.78;;;-146.33
37414;BMP280;23279;46.472;30.760;2023-04-01T03:54:09;76609.81;;;-146.33
37414;BMP280;23279;46.472;30.760;2023-04-01T03:56:35;76660.66;;;-146.33
37414;BMP280;23279;46.472;30.760;2023-04-01T03:59:05;76676.94;;;-146.33
37414;BMP280;23279;46.472;30.760;2023-04-01T04:01:32;76662.72;;;-146.33
37414;BMP280;23279;46.472;30.760;2023-04-01T04:03:57;76650.50;;;-146.33
37414;BMP280;23279;46.472;30.760;2023-04-01T04:06:23;76664.75;;;-146.33
37414;BMP280;23279;46.472;30.760;2023-04-01T04:08:49;76697.28;;;-146.33
37414;BMP280;23279;46.472;30.760;2023-04-01T04:11:15;76707.44;;;-146.33
37414;BMP280;23279;46.472;30.760;2023-04-01T04:13:41;76705.41;;;-146.33
37414;BMP280;23279;46.472;30.760;2023-04-01T04:16:07;76754.22;;;-146.33
37414;BMP280;23279;46.472;30.760;2023-04-01T04:18:33;76790.84;;;-146.33
37414;BMP280;23279;46.472;30.760;2023-04-01T04:20:59;76809.16;;;-146.33
37414;BMP280;23279;46.472;30.760;2023-04-01T04:23:24;76754.22;;;-146.33
37414;BMP280;23279;46.472;30.760;2023-04-01T04:25:57;76748.13;;;-146.33
37414;BMP280;23279;46.472;30.760;2023-04-01T04:28:23;76766.44;;;-146.33
37414;BMP280;23279;46.472;30.760;2023-04-01T04:30:48;76770.50;;;-146.33
37414;BMP280;23279;46.472;30.760;2023-04-01T04:33:14;76853.91;;;-146.33
37414;BMP280;23279;46.472;30.760;2023-04-01T04:35:40;76878.31;;;-146.33
37414;BMP280;23279;46.472;30.760;2023-04-01T04:38:05;76941.38;;;-146.33
37414;BMP280;23279;46.472;30.760;2023-04-01T04:40:31;76996.28;;;-146.33
37414;BMP280;23279;46.472;30.760;2023-04-01T04:42:56;77032.91;;;-146.33
37414;BMP280;23279;46.472;30.760;2023-04-01T04:45:21;76961.72;;;-146.33
37414;BMP280;23279;46.472;30.760;2023-04-01T04:47:47;76945.44;;;-146.33
37414;BMP280;23279;46.472;30.760;2023-04-01T04:50:12;76894.59;;;-146.33
37414;BMP280;23279;46.472;30.760;2023-04-01T04:52:38;76817.28;;;-146.33
37414;BMP280;23279;46.472;30.760;2023-04-01T04:55:04;76725.75;;;-146.33
37414;BMP280;23279;46.472;30.760;2023-04-01T04:57:29;76656.59;;;-146.33
37414;BMP280;23279;46.472;30.760;2023-04-01T04:59:55;76607.78;;;-146.33
37414;BMP280;23279;46.472;30.760;2023-04-01T05:02:20;76587.44;;;-146.33
37414;BMP280;23279;46.472;30.760;2023-04-01T05:04:46;76668.81;;;-146.33
37414;BMP280;23279;46.472;30.760;2023-04-01T05:07:11;76715.59;;;-146.33
37414;BMP280;23279;46.472;30.760;2023-04-01T05:09:37;76689.16;;;-146.33
37414;BMP280;23279;46.472;30.760;2023-04-01T05:12:02;76648.47;;;-146.33
37414;BMP280;23279;46.472;30.760;2023-04-01T05:14:28;76695.25;;;-146.33
37414;BMP280;23279;46.472;30.760;2023-04-01T05:16:53;76841.69;;;-146.33
37414;BMP280;23279;46.472;30.760;2023-04-01T05:19:19;76876.28;;;-146.33
37414;BMP280;23279;46.472;30.760;2023-04-01T05:21:45;76900.69;;;-146.33
37414;BMP280;23279;46.472;30.760;2023-04-01T05:24:10;76919.00;;;-146.33
37414;BMP280;23279;46.472;30.760;2023-04-01T05:26:36;76943.41;;;-146.33
37414;BMP280;23279;46.472;30.760;2023-04-01T05:29:03;76961.72;;;-146.33
37414;BMP280;23279;46.472;30.760;2023-04-01T05:31:29;76941.38;;;-146.33
37414;BMP280;23279;46.472;30.760;2023-04-01T05:33:55;76876.28;;;-146.33
37414;BMP280;23279;46.472;30.760;2023-04-01T05:36:20;76845.75;;;-146.33
37414;BMP280;23279;46.472;30.760;2023-04-01T05:38:46;76792.88;;;-146.33
37414;BMP280;23279;46.472;30.760;2023-04-01T05:41:13;76831.53;;;-146.33
37414;BMP280;23279;46.472;30.760;2023-04-01T05:43:39;76796.94;;;-146.33
37414;BMP280;23279;46.472;30.760;2023-04-01T05:46:05;76847.81;;;-146.33
37414;BMP280;23279;46.472;30.760;2023-04-01T05:48:32;76955.59;;;-146.33
37414;BMP280;23279;46.472;30.760;2023-04-01T05:50:59;77010.53;;;-146.33
37414;BMP280;23279;46.472;30.760;2023-04-01T05:53:24;77043.06;;;-146.33
37414;BMP280;23279;46.472;30.760;2023-04-01T05:55:50;77071.56;;;-146.33
37414;BMP280;23279;46.472;30.760;2023-04-01T05:58:15;77136.66;;;-146.33
37414;BMP280;23279;46.472;30.760;2023-04-01T06:00:41;77095.97;;;-146.33
37414;BMP280;23279;46.472;30.760;2023-04-01T06:03:06;77148.84;;;-146.33
37414;BMP280;23279;46.472;30.760;2023-04-01T06:05:43;77165.13;;;-146.33
37414;BMP280;23279;46.472;30.760;2023-04-01T06:08:15;77118.34;;;-146.33
37414;BMP280;23279;46.472;30.760;2023-04-01T06:16:26;77148.84;;;-146.33
37414;BMP280;23279;46.472;30.760;2023-04-01T06:19:16;77030.88;;;-146.33
37414;BMP280;23279;46.472;30.760;2023-04-01T06:30:59;76811.19;;;-146.33
37414;BMP280;23279;46.472;30.760;2023-04-01T06:44:29;76888.47;;;-146.33
37414;BMP280;23279;46.472;30.760;2023-04-01T06:55:26;76729.81;;;-146.33
37414;BMP280;23279;46.472;30.760;2023-04-01T06:57:55;76762.38;;;-146.33
37414;BMP280;23279;46.472;30.760;2023-04-01T07:00:31;76703.38;;;-146.33
37414;BMP280;23279;46.472;30.760;2023-04-01T07:05:39;76709.50;;;-146.33
37414;BMP280;23279;46.472;30.760;2023-04-01T07:08:08;76703.38;;;-146.33
37414;BMP280;23279;46.472;30.760;2023-04-01T07:13:25;76656.59;;;-146.33
37414;BMP280;23279;46.472;30.760;2023-04-01T07:16:04;76693.22;;;-146.33
37414;BMP280;23279;46.472;30.760;2023-04-01T07:18:36;76742.03;;;-146.33
37414;BMP280;23279;46.472;30.760;2023-04-01T07:21:02;76705.41;;;-146.33
37414;BMP280;23279;46.472;30.760;2023-04-01T07:23:33;76744.06;;;-146.33
37414;BMP280;23279;46.472;30.760;2023-04-01T07:26:14;76746.09;;;-146.33
37414;BMP280;23279;46.472;30.760;2023-04-01T07:28:40;76733.91;;;-146.33
37414;BMP280;23279;46.472;30.760;2023-04-01T07:37:09;76538.63;;;-146.33
37414;BMP280;23279;46.472;30.760;2023-04-01T07:50:41;76565.06;;;-146.33
37414;BMP280;23279;46.472;30.760;2023-04-01T08:06:47;76518.28;;;-146.33
37414;BMP280;23279;46.472;30.760;2023-04-01T08:09:27;76445.09;;;-146.33
37414;BMP280;23279;46.472;30.760;2023-04-01T08:15:19;76416.59;;;-146.33
37414;BMP280;23279;46.472;30.760;2023-04-01T08:18:03;76404.41;;;-146.33
37414;BMP280;23279;46.472;30.760;2023-04-01T08:23:22;76398.31;;;-146.33
37414;BMP280;23279;46.472;30.760;2023-04-01T08:26:05;76400.34;;;-146.33
37414;BMP280;23279;46.472;30.760;2023-04-01T08:29:10;76436.94;;;-146.33
37414;BMP280;23279;46.472;30.760;2023-04-01T08:31:45;76493.91;;;-146.33
37414;BMP280;23279;46.472;30.760;2023-04-01T08:34:23;76489.81;;;-146.33
37414;BMP280;23279;46.472;30.760;2023-04-01T08:37:00;76518.28;;;-146.33
37414;BMP280;23279;46.472;30.760;2023-04-01T08:47:29;76575.25;;;-146.33
37414;BMP280;23279;46.472;30.760;2023-04-01T08:50:36;76624.06;;;-146.33
37414;BMP280;23279;46.472;30.760;2023-04-01T08:56:21;76613.88;;;-146.33
37414;BMP280;23279;46.472;30.760;2023-04-01T09:13:24;76628.13;;;-146.33
37414;BMP280;23279;46.472;30.760;2023-04-01T09:21:30;76607.78;;;-146.33
37414;BMP280;23279;46.472;30.760;2023-04-01T09:24:00;76603.72;;;-146.33
37414;BMP280;23279;46.472;30.760;2023-04-01T09:32:11;76603.72;;;-146.33
37414;BMP280;23279;46.472;30.760;2023-04-01T09:35:00;76563.03;;;-146.33
37414;BMP280;23279;46.472;30.760;2023-04-01T09:38:11;76591.53;;;-146.33
37414;BMP280;23279;46.472;30.760;2023-04-01T10:02:08;76500.00;;;-146.33
37414;BMP280;23279;46.472;30.760;2023-04-01T10:16:51;76524.41;;;-146.33
37414;BMP280;23279;46.472;30.760;2023-04-01T10:22:58;76530.50;;;-146.33
37414;BMP280;23279;46.472;30.760;2023-04-01T10:39:48;76475.59;;;-146.33
37414;BMP280;23279;46.472;30.760;2023-04-01T10:51:08;76524.41;;;-146.33
37414;BMP280;23279;46.472;30.760;2023-04-01T11:35:24;76640.34;;;-146.33
37414;BMP280;23279;46.472;30.760;2023-04-01T11:40:33;76556.94;;;-146.33
37414;BMP280;23279;46.472;30.760;2023-04-01T11:43:01;76552.88;;;-146.33
37414;BMP280;23279;46.472;30.760;2023-04-01T11:45:55;76558.97;;;-146.33
37414;BMP280;23279;46.472;30.760;2023-04-01T11:48:45;76571.19;;;-146.33
37414;BMP280;23279;46.472;30.760;2023-04-01T12:05:24;76532.53;;;-146.33
37414;BMP280;23279;46.472;30.760;2023-04-01T12:11:05;76481.69;;;-146.33
37414;BMP280;23279;46.472;30.760;2023-04-01T12:13:59;76445.09;;;-146.33
37414;BMP280;23279;46.472;30.760;2023-04-01T12:16:50;76453.22;;;-146.33
37414;BMP280;23279;46.472;30.760;2023-04-01T12:19:46;76441.00;;;-146.33
37414;BMP280;23279;46.472;30.760;2023-04-01T12:22:34;76416.59;;;-146.33
37414;BMP280;23279;46.472;30.760;2023-04-01T12:25:26;76382.03;;;-146.33
37414;BMP280;23279;46.472;30.760;2023-04-01T12:38:51;76355.59;;;-146.33
37414;BMP280;23279;46.472;30.760;2023-04-01T12:41:41;76347.47;;;-146.33
37414;BMP280;23279;46.472;30.760;2023-04-01T12:44:28;76363.72;;;-146.33
37414;BMP280;23279;46.472;30.760;2023-04-01T12:47:35;76339.31;;;-146.33
37414;BMP280;23279;46.472;30.760;2023-04-01T12:58:59;76394.25;;;-146.33
37414;BMP280;23279;46.472;30.760;2023-04-01T13:03:47;76373.91;;;-146.33
37414;BMP280;23279;46.472;30.760;2023-04-01T13:16:52;76363.72;;;-146.33
37414;BMP280;23279;46.472;30.760;2023-04-01T13:19:59;76319.00;;;-146.33
37414;BMP280;23279;46.472;30.760;2023-04-01T13:22:48;76306.78;;;-146.33
37414;BMP280;23279;46.472;30.760;2023-04-01T13:28:25;76343.41;;;-146.33
37414;BMP280;23279;46.472;30.760;2023-04-01T13:31:05;76341.34;;;-146.33
37414;BMP280;23279;46.472;30.760;2023-04-01T13:33:38;76294.59;;;-146.33
37414;BMP280;23279;46.472;30.760;2023-04-01T13:36:26;76282.38;;;-146.33
37414;BMP280;23279;46.472;30.760;2023-04-01T13:39:06;76253.91;;;-146.33
37414;BMP280;23279;46.472;30.760;2023-04-01T13:42:06;76217.31;;;-146.33
37414;BMP280;23279;46.472;30.760;2023-04-01T13:44:55;76180.69;;;-146.33
37414;BMP280;23279;46.472;30.760;2023-04-01T14:17:34;76070.88;;;-146.33
37414;BMP280;23279;46.472;30.760;2023-04-01T14:20:13;76058.69;;;-146.33
37414;BMP280;23279;46.472;30.760;2023-04-01T14:28:43;76054.63;;;-146.33
37414;BMP280;23279;46.472;30.760;2023-04-01T14:37:07;76052.59;;;-146.33
37414;BMP280;23279;46.472;30.760;2023-04-01T14:42:55;76048.53;;;-146.33
37414;BMP280;23279;46.472;30.760;2023-04-01T14:48:00;76050.56;;;-146.33
37414;BMP280;23279;46.472;30.760;2023-04-01T14:50:41;76034.28;;;-146.33
37414;BMP280;23279;46.472;30.760;2023-04-01T15:03:30;75942.78;;;-146.33
37414;BMP280;23279;46.472;30.760;2023-04-01T15:30:31;75940.75;;;-146.33
37414;BMP280;23279;46.472;30.760;2023-04-01T15:33:04;75954.97;;;-146.33
37414;BMP280;23279;46.472;30.760;2023-04-01T15:41:00;75965.16;;;-146.33
37414;BMP280;23279;46.472;30.760;2023-04-01T15:43:47;75963.13;;;-146.33
37414;BMP280;23279;46.472;30.760;2023-04-01T15:51:44;75952.94;;;-146.33
37414;BMP280;23279;46.472;30.760;2023-04-01T16:00:06;75965.16;;;-146.33
37414;BMP280;23279;46.472;30.760;2023-04-01T16:02:51;75932.59;;;-146.33
37414;BMP280;23279;46.472;30.760;2023-04-01T16:11:33;75940.75;;;-146.33
37414;BMP280;23279;46.472;30.760;2023-04-01T16:17:07;75902.09;;;-146.33
37414;BMP280;23279;46.472;30.760;2023-04-01T16:19:59;75932.59;;;-146.33
37414;BMP280;23279;46.472;30.760;2023-04-01T16:25:41;75950.91;;;-146.33
37414;BMP280;23279;46.472;30.760;2023-04-01T16:30:50;75985.47;;;-146.33
37414;BMP280;23279;46.472;30.760;2023-04-01T16:33:24;75997.69;;;-146.33
37414;BMP280;23279;46.472;30.760;2023-04-01T16:35:58;76022.09;;;-146.33
37414;BMP280;23279;46.472;30.760;2023-04-01T16:38:48;76013.94;;;-146.33
37414;BMP280;23279;46.472;30.760;2023-04-01T16:41:36;76001.75;;;-146.33
37414;BMP280;23279;46.472;30.760;2023-04-01T16:44:26;76015.97;;;-146.33
37414;BMP280;23279;46.472;30.760;2023-04-01T16:47:17;76026.16;;;-146.33
37414;BMP280;23279;46.472;30.760;2023-04-01T16:49:59;76034.28;;;-146.33
37414;BMP280;23279;46.472;30.760;2023-04-01T16:55:18;76013.94;;;-146.33
37414;BMP280;23279;46.472;30.760;2023-04-01T16:57:55;76015.97;;;-146.33
37414;BMP280;23279;46.472;30.760;2023-04-01T17:00:30;76018.03;;;-146.33
37414;BMP280;23279;46.472;30.760;2023-04-01T17:03:29;76015.97;;;-146.33
37414;BMP280;23279;46.472;30.760;2023-04-01T17:09:16;76028.19;;;-146.33
37414;BMP280;23279;46.472;30.760;2023-04-01T17:11:54;76046.50;;;-146.33
37414;BMP280;23279;46.472;30.760;2023-04-01T17:14:38;76022.09;;;-146.33
37414;BMP280;23279;46.472;30.760;2023-04-01T17:17:31;76026.16;;;-146.33
37414;BMP280;23279;46.472;30.760;2023-04-01T17:25:53;76007.84;;;-146.33
37414;BMP280;23279;46.472;30.760;2023-04-01T17:32:16;76009.88;;;-146.33
37414;BMP280;23279;46.472;30.760;2023-04-01T17:40:05;76013.94;;;-146.33
37414;BMP280;23279;46.472;30.760;2023-04-01T17:42:52;76013.94;;;-146.33
37414;BMP280;23279;46.472;30.760;2023-04-01T17:51:32;76022.09;;;-146.33
37414;BMP280;23279;46.472;30.760;2023-04-01T18:04:28;76042.41;;;-146.33
37414;BMP280;23279;46.472;30.760;2023-04-01T18:07:18;76060.72;;;-146.33
37414;BMP280;23279;46.472;30.760;2023-04-01T18:18:42;76087.16;;;-146.33
37414;BMP280;23279;46.472;30.760;2023-04-01T18:23:46;76099.34;;;-146.33
37414;BMP280;23279;46.472;30.760;2023-04-01T18:26:26;76099.34;;;-146.33
37414;BMP280;23279;46.472;30.760;2023-04-01T18:28:57;76115.63;;;-146.33
37414;BMP280;23279;46.472;30.760;2023-04-01T18:31:31;76121.72;;;-146.33
37414;BMP280;23279;46.472;30.760;2023-04-01T18:34:02;76127.81;;;-146.33
37414;BMP280;23279;46.472;30.760;2023-04-01T18:36:55;76125.78;;;-146.33
37414;BMP280;23279;46.472;30.760;2023-04-01T18:39:30;76123.75;;;-146.33
37414;BMP280;23279;46.472;30.760;2023-04-01T18:42:17;76119.69;;;-146.33
37414;BMP280;23279;46.472;30.760;2023-04-01T18:45:33;76111.56;;;-146.33
37414;BMP280;23279;46.472;30.760;2023-04-01T18:47:44;76095.28;;;-146.33
37414;BMP280;23279;46.472;30.760;2023-04-01T18:52:48;76142.06;;;-146.33
37414;BMP280;23279;46.472;30.760;2023-04-01T18:55:32;76158.31;;;-146.33
37414;BMP280;23279;46.472;30.760;2023-04-01T19:01:11;76180.69;;;-146.33
37414;BMP280;23279;46.472;30.760;2023-04-01T19:04:05;76176.63;;;-146.33
37414;BMP280;23279;46.472;30.760;2023-04-01T19:06:45;76184.75;;;-146.33
37414;BMP280;23279;46.472;30.760;2023-04-01T19:09:44;76199.00;;;-146.33
37414;BMP280;23279;46.472;30.760;2023-04-01T19:12:37;76199.00;;;-146.33
37414;BMP280;23279;46.472;30.760;2023-04-01T19:20:38;76243.75;;;-146.33
37414;BMP280;23279;46.472;30.760;2023-04-01T19:26:00;76257.97;;;-146.33
37414;BMP280;23279;46.472;30.760;2023-04-01T19:29:05;76314.91;;;-146.33
37414;BMP280;23279;46.472;30.760;2023-04-01T19:31:51;76323.06;;;-146.33
37414;BMP280;23279;46.472;30.760;2023-04-01T19:45:46;76353.56;;;-146.33
37414;BMP280;23279;46.472;30.760;2023-04-01T19:51:03;76335.25;;;-146.33
37414;BMP280;23279;46.472;30.760;2023-04-01T19:53:39;76343.41;;;-146.33
37414;BMP280;23279;46.472;30.760;2023-04-01T19:56:19;76357.63;;;-146.33
37414;BMP280;23279;46.472;30.760;2023-04-01T19:59:01;76363.72;;;-146.33
37414;BMP280;23279;46.472;30.760;2023-04-01T20:01:38;76351.53;;;-146.33
37414;BMP280;23279;46.472;30.760;2023-04-01T20:04:26;76357.63;;;-146.33
37414;BMP280;23279;46.472;30.760;2023-04-01T20:07:04;76355.59;;;-146.33
37414;BMP280;23279;46.472;30.760;2023-04-01T20:09:52;76335.25;;;-146.33
37414;BMP280;23279;46.472;30.760;2023-04-01T20:12:42;76335.25;;;-146.33
37414;BMP280;23279;46.472;30.760;2023-04-01T20:15:44;76337.28;;;-146.33
37414;BMP280;23279;46.472;30.760;2023-04-01T20:23:45;76359.66;;;-146.33
37414;BMP280;23279;46.472;30.760;2023-04-01T20:26:14;76347.47;;;-146.33
37414;BMP280;23279;46.472;30.760;2023-04-01T20:29:02;76357.63;;;-146.33
37414;BMP280;23279;46.472;30.760;2023-04-01T20:31:43;76355.59;;;-146.33
37414;BMP280;23279;46.472;30.760;2023-04-01T20:37:18;76345.44;;;-146.33
37414;BMP280;23279;46.472;30.760;2023-04-01T20:39:57;76327.13;;;-146.33
37414;BMP280;23279;46.472;30.760;2023-04-01T20:42:45;76319.00;;;-146.33
37414;BMP280;23279;46.472;30.760;2023-04-01T20:50:25;76294.59;;;-146.33
37414;BMP280;23279;46.472;30.760;2023-04-01T20:53:12;76294.59;;;-146.33
37414;BMP280;23279;46.472;30.760;2023-04-01T21:19:09;76233.56;;;-146.33
37414;BMP280;23279;46.472;30.760;2023-04-01T21:21:50;76209.16;;;-146.33
37414;BMP280;23279;46.472;30.760;2023-04-01T21:36:08;76188.84;;;-146.33
37414;BMP280;23279;46.472;30.760;2023-04-01T21:39:01;76190.88;;;-146.33
37414;BMP280;23279;46.472;30.760;2023-04-01T21:49:53;76138.00;;;-146.33
37414;BMP280;23279;46.472;30.760;2023-04-01T21:53:06;76119.69;;;-146.33
37414;BMP280;23279;46.472;30.760;2023-04-01T22:06:34;76103.44;;;-146.33
37414;BMP280;23279;46.472;30.760;2023-04-01T22:12:00;76087.16;;;-146.33
37414;BMP280;23279;46.472;30.760;2023-04-01T22:14:53;76081.06;;;-146.33
37414;BMP280;23279;46.472;30.760;2023-04-01T22:20:13;76058.69;;;-146.33
37414;BMP280;23279;46.472;30.760;2023-04-01T22:23:07;76056.66;;;-146.33
37414;BMP280;23279;46.472;30.760;2023-04-01T22:25:46;76048.53;;;-146.33
37414;BMP280;23279;46.472;30.760;2023-04-01T22:30:57;76042.41;;;-146.33
37414;BMP280;23279;46.472;30.760;2023-04-01T22:35:54;76042.41;;;-146.33
37414;BMP280;23279;46.472;30.760;2023-04-01T22:41:13;76026.16;;;-146.33
37414;BMP280;23279;46.472;30.760;2023-04-01T22:43:43;76030.22;;;-146.33
37414;BMP280;23279;46.472;30.760;2023-04-01T22:48:50;76034.28;;;-146.33
37414;BMP280;23279;46.472;30.760;2023-04-01T22:51:50;76018.03;;;-146.33
37414;BMP280;23279;46.472;30.760;2023-04-01T22:59:39;75991.59;;;-146.33
37414;BMP280;23279;46.472;30.760;2023-04-01T23:02:20;76009.88;;;-146.33
37414;BMP280;23279;46.472;30.760;2023-04-01T23:04:53;76011.91;;;-146.33
37414;BMP280;23279;46.472;30.760;2023-04-01T23:09:47;76003.78;;;-146.33
37414;BMP280;23279;46.472;30.760;2023-04-01T23:12:16;76009.88;;;-146.33
37414;BMP280;23279;46.472;30.760;2023-04-01T23:14:52;76015.97;;;-146.33
37414;BMP280;23279;46.472;30.760;2023-04-01T23:17:45;76015.97;;;-146.33
37414;BMP280;23279;46.472;30.760;2023-04-01T23:20:56;76020.06;;;-146.33
37414;BMP280;23279;46.472;30.760;2023-04-01T23:26:24;76022.09;;;-146.33
37414;BMP280;23279;46.472;30.760;2023-04-01T23:28:56;76022.09;;;-146.33
37414;BMP280;23279;46.472;30.760;2023-04-01T23:31:26;76034.28;;;-146.33
37414;BMP280;23279;46.472;30.760;2023-04-01T23:33:57;76036.31;;;-146.33
37414;BMP280;23279;46.472;30.760;2023-04-01T23:36:23;76030.22;;;-146.33
37414;BMP280;23279;46.472;30.760;2023-04-01T23:38:50;76030.22;;;-146.33
37414;BMP280;23279;46.472;30.760;2023-04-01T23:41:25;76026.16;;;-146.33
37414;BMP280;23279;46.472;30.760;2023-04-01T23:43:59;76024.13;;;-146.33